Time;durP1;ratioP1;P1;durP2;ratioP2;P2;SDS_P1;SDS_P2;PMS_P1;PMS_P2;Temp;Humidity;BMP_temperature;BMP_pressure;BME280_temperature;BME280_humidity;BME280_pressure;Samples;Min_cycle;Max_cycle;Signal;HPM_P1;HPM_P2
2024/01/27 00:00:08;;;;;;;6.63;2.00;;;14.90;99.90;;;;;;5049676;28;20502;-75
2024/01/27 00:02:34;;;;;;;4.97;1.35;;;14.80;99.90;;;;;;5050591;28;20137;-75
2024/01/27 00:05:00;;;;;;;3.13;1.38;;;14.80;99.90;;;;;;5054938;28;20032;-75
2024/01/27 00:07:28;;;;;;;4.30;2.00;;;14.80;99.90;;;;;;5053140;28;20037;-76
2024/01/27 00:09:59;;;;;;;5.78;1.85;;;14.80;99.90;;;;;;5053625;28;20029;-76
2024/01/27 00:12:24;;;;;;;4.05;1.63;;;14.80;99.90;;;;;;5053050;28;20060;-75
2024/01/27 00:14:50;;;;;;;5.63;1.80;;;14.80;99.90;;;;;;5053342;28;20052;-77
2024/01/27 00:17:16;;;;;;;7.10;1.87;;;14.80;99.90;;;;;;5053398;28;20032;-75
2024/01/27 00:19:42;;;;;;;4.20;1.73;;;14.80;99.90;;;;;;5052749;28;20100;-74
2024/01/27 00:22:08;;;;;;;5.70;1.70;;;14.80;99.90;;;;;;5054685;28;20036;-74
2024/01/27 00:24:34;;;;;;;5.78;1.40;;;14.70;99.90;;;;;;5050999;28;20036;-76
2024/01/27 00:27:00;;;;;;;6.20;2.03;;;14.70;99.90;;;;;;5050025;28;20035;-77
2024/01/27 00:29:26;;;;;;;5.38;1.40;;;14.70;99.90;;;;;;5052638;28;20029;-75
2024/01/27 00:31:54;;;;;;;4.37;1.70;;;14.80;99.90;;;;;;5053207;28;20029;-76
2024/01/27 00:34:20;;;;;;;6.07;1.50;;;14.70;99.90;;;;;;5052797;28;20036;-76
2024/01/27 00:36:48;;;;;;;2.33;1.43;;;14.70;99.90;;;;;;5049923;28;20094;-76
2024/01/27 00:39:18;;;;;;;5.60;1.55;;;14.70;99.90;;;;;;5052464;28;20392;-76
2024/01/27 00:41:44;;;;;;;3.83;1.50;;;14.70;99.90;;;;;;5039285;28;20478;-75
2024/01/27 00:44:10;;;;;;;8.17;1.57;;;14.70;99.90;;;;;;5054007;28;20116;-78
2024/01/27 00:46:37;;;;;;;5.65;1.88;;;14.60;99.90;;;;;;5052044;28;20746;-76
2024/01/27 00:49:03;;;;;;;4.85;1.95;;;14.60;99.90;;;;;;5052784;28;20148;-75
2024/01/27 00:51:29;;;;;;;4.57;1.40;;;14.60;99.90;;;;;;5052803;28;20534;-76
2024/01/27 00:53:54;;;;;;;4.27;1.17;;;14.60;99.90;;;;;;5052636;28;20066;-75
2024/01/27 00:56:20;;;;;;;3.30;1.60;;;14.60;99.90;;;;;;5052026;28;20061;-76
2024/01/27 00:58:46;;;;;;;4.73;1.30;;;14.60;99.90;;;;;;5052262;28;20061;-76
2024/01/27 01:01:13;;;;;;;6.80;1.83;;;14.60;99.90;;;;;;5052791;28;20087;-76
2024/01/27 01:03:38;;;;;;;5.30;1.50;;;14.50;99.90;;;;;;5052144;28;20040;-76
2024/01/27 01:06:04;;;;;;;6.67;1.53;;;14.60;99.90;;;;;;5052364;28;20378;-77
2024/01/27 01:08:31;;;;;;;6.03;1.30;;;14.50;99.90;;;;;;5052013;28;20032;-74
2024/01/27 01:10:57;;;;;;;5.03;1.52;;;14.50;99.90;;;;;;5052537;28;20021;-76
2024/01/27 01:13:23;;;;;;;3.30;1.40;;;14.50;99.90;;;;;;5052030;28;20040;-76
2024/01/27 01:15:48;;;;;;;3.97;1.67;;;14.50;99.90;;;;;;5051884;28;20033;-75
2024/01/27 01:18:14;;;;;;;5.17;1.37;;;14.50;99.90;;;;;;5052597;28;20033;-76
2024/01/27 01:20:40;;;;;;;7.37;1.50;;;14.50;99.90;;;;;;5051592;28;20035;-75
2024/01/27 01:23:06;;;;;;;6.73;1.63;;;14.50;99.90;;;;;;5051296;28;20032;-75
2024/01/27 01:25:31;;;;;;;2.33;1.27;;;14.50;99.90;;;;;;5051768;28;20032;-76
2024/01/27 01:27:57;;;;;;;3.00;1.47;;;14.40;99.90;;;;;;5051316;28;20024;-76
2024/01/27 01:30:23;;;;;;;9.33;2.27;;;14.40;99.90;;;;;;5051712;28;20123;-76
2024/01/27 01:32:50;;;;;;;1.77;1.30;;;14.50;99.90;;;;;;5051471;28;20463;-75
2024/01/27 01:35:15;;;;;;;;;;;14.40;99.90;;;;;;5053000;28;20090;-76
2024/01/27 01:37:41;;;;;;;4.10;1.67;;;14.40;99.90;;;;;;5050415;28;20027;-75
2024/01/27 01:40:08;;;;;;;4.03;1.20;;;14.40;99.90;;;;;;5051214;28;21030;-76
2024/01/27 01:42:33;;;;;;;3.97;1.40;;;14.40;99.90;;;;;;5050892;28;20044;-76
2024/01/27 01:44:59;;;;;;;5.43;1.70;;;14.40;99.90;;;;;;5052597;28;20036;-76
2024/01/27 01:47:25;;;;;;;3.30;1.37;;;14.40;99.90;;;;;;5051582;28;20054;-76
2024/01/27 01:49:52;;;;;;;3.92;1.48;;;14.40;99.90;;;;;;5050710;28;20025;-75
2024/01/27 01:52:20;;;;;;;;;;;14.30;99.90;;;;;;5052147;28;20033;-77
2024/01/27 01:54:51;;;;;;;3.30;1.23;;;14.30;99.90;;;;;;5051082;28;19912;-76
2024/01/27 01:57:17;;;;;;;3.15;1.60;;;14.30;99.90;;;;;;5049125;28;20040;-77
2024/01/27 01:59:43;;;;;;;2.10;1.38;;;14.30;99.90;;;;;;5050875;28;20037;-76
2024/01/27 02:02:09;;;;;;;2.47;1.57;;;14.30;99.90;;;;;;5048317;28;20060;-76
2024/01/27 02:04:48;;;;;;;5.03;1.58;;;14.30;99.90;;;;;;5052592;28;20032;-76
2024/01/27 02:07:14;;;;;;;4.38;1.30;;;14.30;99.90;;;;;;5051016;28;20037;-76
2024/01/27 02:09:40;;;;;;;4.85;1.45;;;14.30;99.90;;;;;;5050384;28;20393;-77
2024/01/27 02:12:06;;;;;;;5.70;1.10;;;14.20;99.90;;;;;;5050707;28;20033;-77
2024/01/27 02:14:32;;;;;;;5.63;1.40;;;14.30;99.90;;;;;;5050873;28;20036;-77
2024/01/27 02:16:58;;;;;;;2.57;1.10;;;14.30;99.90;;;;;;5052075;28;20033;-75
2024/01/27 02:19:24;;;;;;;5.03;1.30;;;14.20;99.90;;;;;;5050719;28;20386;-76
2024/01/27 02:21:50;;;;;;;3.03;1.27;;;14.20;99.90;;;;;;5050125;28;20478;-76
2024/01/27 02:24:16;;;;;;;4.60;1.58;;;14.20;99.90;;;;;;5050107;28;20078;-76
2024/01/27 02:26:42;;;;;;;2.73;1.03;;;14.20;99.90;;;;;;5050022;28;20024;-76
2024/01/27 02:29:07;;;;;;;3.50;1.50;;;14.20;99.90;;;;;;5050629;28;20029;-76
2024/01/27 02:31:33;;;;;;;5.83;1.37;;;14.20;99.90;;;;;;5051722;28;20393;-76
2024/01/27 02:33:59;;;;;;;4.47;1.47;;;14.20;99.90;;;;;;5050690;28;20032;-76
2024/01/27 02:36:25;;;;;;;2.07;1.43;;;14.20;99.90;;;;;;5051067;28;20356;-77
2024/01/27 02:38:50;;;;;;;3.20;1.40;;;14.20;99.90;;;;;;5049721;28;20366;-76
2024/01/27 02:41:16;;;;;;;2.60;1.13;;;14.10;99.90;;;;;;5050088;28;20390;-76
2024/01/27 02:43:42;;;;;;;1.73;0.90;;;14.10;99.90;;;;;;5046912;28;20029;-76
2024/01/27 02:46:13;;;;;;;2.07;1.00;;;14.10;99.90;;;;;;5045813;28;20037;-78
2024/01/27 02:48:45;;;;;;;3.97;1.02;;;14.10;99.90;;;;;;5048420;28;20128;-76
2024/01/27 02:51:11;;;;;;;5.10;1.38;;;14.10;99.90;;;;;;5049794;28;20040;-75
2024/01/27 02:53:37;;;;;;;6.57;1.17;;;14.10;99.90;;;;;;5049409;28;20025;-77
2024/01/27 02:56:05;;;;;;;3.13;1.30;;;14.10;99.90;;;;;;5050078;28;20154;-76
2024/01/27 02:58:31;;;;;;;3.92;1.00;;;14.10;99.90;;;;;;5035985;28;20474;-77
2024/01/27 03:00:58;;;;;;;6.70;1.60;;;14.00;99.90;;;;;;5049835;28;20029;-77
2024/01/27 03:03:23;;;;;;;3.25;1.20;;;14.00;99.90;;;;;;5051086;28;20056;-76
2024/01/27 03:05:49;;;;;;;6.03;1.03;;;14.00;99.90;;;;;;5051256;28;20033;-77
2024/01/27 03:08:15;;;;;;;2.67;1.07;;;14.00;99.90;;;;;;5050929;28;20413;-75
2024/01/27 03:10:40;;;;;;;3.87;1.40;;;14.00;99.90;;;;;;5051043;28;20112;-77
2024/01/27 03:13:06;;;;;;;3.57;1.20;;;14.00;99.90;;;;;;5050736;28;20031;-76
2024/01/27 03:15:32;;;;;;;3.50;1.10;;;14.00;99.90;;;;;;5050801;28;20033;-75
2024/01/27 03:17:57;;;;;;;6.40;1.60;;;14.00;99.90;;;;;;5050178;28;20033;-76
2024/01/27 03:20:23;;;;;;;4.87;1.00;;;14.00;99.90;;;;;;5051036;28;20390;-77
2024/01/27 03:22:49;;;;;;;2.60;1.10;;;14.00;99.90;;;;;;5049394;28;20041;-77
2024/01/27 03:25:15;;;;;;;4.13;1.30;;;13.90;99.90;;;;;;5049582;28;20104;-77
2024/01/27 03:27:40;;;;;;;3.40;1.40;;;13.90;99.90;;;;;;5049616;28;20401;-76
2024/01/27 03:30:07;;;;;;;3.70;1.20;;;13.90;99.90;;;;;;5050004;28;20040;-75
2024/01/27 03:32:33;;;;;;;2.25;1.00;;;13.90;99.90;;;;;;5049636;28;20120;-77
2024/01/27 03:35:03;;;;;;;4.63;1.43;;;13.90;99.90;;;;;;5049900;28;20116;-77
2024/01/27 03:37:29;;;;;;;1.80;0.82;;;13.90;99.90;;;;;;5048973;28;20465;-76
2024/01/27 03:39:55;;;;;;;4.20;1.00;;;13.90;99.90;;;;;;5050607;28;20029;-75
2024/01/27 03:42:21;;;;;;;6.82;1.30;;;13.90;99.90;;;;;;5050964;28;20033;-77
2024/01/27 03:44:47;;;;;;;2.60;1.30;;;13.90;99.90;;;;;;5049375;28;20386;-77
2024/01/27 03:47:14;;;;;;;6.17;1.40;;;13.90;99.90;;;;;;5049667;28;20059;-77
2024/01/27 03:49:39;;;;;;;4.28;1.50;;;13.80;99.90;;;;;;5050584;28;20037;-77
2024/01/27 03:52:05;;;;;;;4.30;1.00;;;13.80;99.90;;;;;;5049924;28;20339;-76
2024/01/27 03:54:31;;;;;;;4.00;1.30;;;13.80;99.90;;;;;;5035577;28;20037;-75
2024/01/27 03:56:57;;;;;;;6.00;1.40;;;13.80;99.90;;;;;;5047033;28;20033;-76
2024/01/27 03:59:22;;;;;;;4.27;1.40;;;13.80;99.90;;;;;;5049876;28;20033;-75
2024/01/27 04:01:48;;;;;;;3.40;1.00;;;13.80;99.90;;;;;;5045122;28;20040;-77
2024/01/27 04:04:14;;;;;;;4.37;1.40;;;13.80;99.90;;;;;;5049380;28;20398;-76
2024/01/27 04:06:40;;;;;;;4.33;1.17;;;13.80;99.90;;;;;;5053523;28;20029;-75
2024/01/27 04:09:09;;;;;;;4.32;1.13;;;13.70;99.90;;;;;;5053296;28;20036;-76
2024/01/27 04:11:39;;;;;;;3.65;1.50;;;13.80;99.90;;;;;;5051341;28;20386;-76
2024/01/27 04:14:07;;;;;;;5.82;1.35;;;13.70;99.90;;;;;;5048020;28;20021;-76
2024/01/27 04:16:33;;;;;;;3.83;1.15;;;13.70;99.90;;;;;;5051087;28;20061;-77
2024/01/27 04:18:58;;;;;;;5.10;1.30;;;13.70;99.90;;;;;;5053267;28;20087;-75
2024/01/27 04:21:24;;;;;;;5.00;1.20;;;13.70;99.90;;;;;;5052810;28;20286;-76
2024/01/27 04:23:50;;;;;;;3.27;1.10;;;13.70;99.90;;;;;;5053035;28;20032;-75
2024/01/27 04:26:15;;;;;;;2.43;1.07;;;13.70;99.90;;;;;;5052515;28;20390;-76
2024/01/27 04:28:41;;;;;;;4.80;1.23;;;13.70;99.90;;;;;;5052450;28;20025;-76
2024/01/27 04:31:07;;;;;;;3.30;1.30;;;13.70;99.90;;;;;;5052712;28;20044;-76
2024/01/27 04:33:33;;;;;;;3.60;1.20;;;13.70;99.90;;;;;;5051877;28;20079;-78
2024/01/27 04:35:58;;;;;;;3.50;1.20;;;13.60;99.90;;;;;;5052683;28;20482;-78
2024/01/27 04:38:24;;;;;;;6.93;0.93;;;13.60;99.90;;;;;;5053512;28;20112;-77
2024/01/27 04:40:51;;;;;;;3.77;1.07;;;13.60;99.90;;;;;;5053617;28;20032;-76
2024/01/27 04:43:18;;;;;;;2.38;1.20;;;13.60;99.90;;;;;;5051639;28;20048;-77
2024/01/27 04:45:44;;;;;;;3.72;1.15;;;13.60;99.90;;;;;;5054451;28;20032;-76
2024/01/27 04:48:10;;;;;;;2.20;1.00;;;13.60;99.90;;;;;;5052384;28;20885;-75
2024/01/27 04:50:36;;;;;;;6.30;1.27;;;13.60;99.90;;;;;;5052347;28;20080;-76
2024/01/27 04:53:01;;;;;;;3.73;1.10;;;13.60;99.90;;;;;;5051768;28;20509;-76
2024/01/27 04:55:27;;;;;;;5.40;1.43;;;13.60;99.90;;;;;;5052249;28;20119;-76
2024/01/27 04:57:53;;;;;;;3.50;1.30;;;13.50;99.90;;;;;;5052482;28;20036;-76
2024/01/27 05:00:19;;;;;;;3.47;1.30;;;13.60;99.90;;;;;;5052413;28;20444;-77
2024/01/27 05:02:45;;;;;;;2.33;1.00;;;13.50;99.90;;;;;;5051531;28;20036;-75
2024/01/27 05:05:11;;;;;;;6.72;1.25;;;13.50;99.90;;;;;;5053213;28;20766;-76
2024/01/27 05:07:38;;;;;;;4.32;1.75;;;13.50;99.90;;;;;;5051239;28;20106;-76
2024/01/27 05:10:05;;;;;;;3.90;1.30;;;13.50;99.90;;;;;;5052045;28;20033;-76
2024/01/27 05:12:31;;;;;;;;;;;13.50;99.90;;;;;;5050710;28;20505;-76
2024/01/27 05:14:57;;;;;;;6.83;1.20;;;13.50;99.90;;;;;;5049567;28;19909;-76
2024/01/27 05:17:22;;;;;;;3.17;1.10;;;13.50;99.90;;;;;;5048768;28;20044;-76
2024/01/27 05:19:50;;;;;;;3.20;1.40;;;13.40;99.90;;;;;;5047509;28;20056;-75
2024/01/27 05:22:16;;;;;;;5.53;1.00;;;13.40;99.90;;;;;;5042769;28;20477;-75
2024/01/27 05:24:41;;;;;;;4.50;1.13;;;13.40;99.90;;;;;;5037553;28;20030;-78
2024/01/27 05:27:07;;;;;;;4.50;1.20;;;13.40;99.90;;;;;;5041455;28;20064;-74
2024/01/27 05:29:33;;;;;;;2.60;0.77;;;13.40;99.90;;;;;;5045058;28;20033;-75
2024/01/27 05:31:59;;;;;;;3.50;1.30;;;13.40;99.90;;;;;;5034067;28;20120;-77
2024/01/27 05:34:24;;;;;;;2.00;1.00;;;13.40;99.90;;;;;;5041988;28;20067;-76
2024/01/27 05:36:50;;;;;;;3.30;1.47;;;13.40;99.90;;;;;;5036403;28;20073;-77
2024/01/27 05:39:16;;;;;;;6.27;1.27;;;13.40;99.90;;;;;;5049233;28;20036;-76
2024/01/27 05:41:41;;;;;;;2.53;1.30;;;13.30;99.90;;;;;;5042359;28;20498;-76
2024/01/27 05:44:07;;;;;;;2.93;0.90;;;13.30;99.90;;;;;;5038496;28;20040;-77
2024/01/27 05:46:33;;;;;;;3.03;0.90;;;13.30;99.90;;;;;;5031871;28;20483;-77
2024/01/27 05:49:01;;;;;;;3.33;1.20;;;13.30;99.90;;;;;;5039383;28;20028;-75
2024/01/27 05:51:27;;;;;;;2.35;1.20;;;13.30;99.90;;;;;;5050926;28;20119;-75
2024/01/27 05:53:52;;;;;;;3.87;0.97;;;13.30;99.90;;;;;;5043953;28;20409;-77
2024/01/27 05:56:21;;;;;;;2.67;1.13;;;13.30;99.90;;;;;;5049934;28;20453;-77
2024/01/27 05:58:48;;;;;;;2.20;1.20;;;13.30;99.90;;;;;;5036775;28;20075;-77
2024/01/27 06:01:13;;;;;;;3.95;1.13;;;13.30;99.90;;;;;;5046598;28;20059;-76
2024/01/27 06:03:42;;;;;;;4.53;1.27;;;13.30;99.90;;;;;;5051153;28;20402;-76
2024/01/27 06:06:08;;;;;;;4.43;1.50;;;13.30;99.90;;;;;;5052402;28;20029;-77
2024/01/27 06:08:33;;;;;;;4.20;1.07;;;13.30;99.90;;;;;;5050627;28;20098;-75
2024/01/27 06:10:59;;;;;;;5.13;1.50;;;13.30;99.90;;;;;;5051005;28;20436;-76
2024/01/27 06:13:25;;;;;;;2.53;1.30;;;13.20;99.90;;;;;;5051084;28;20025;-76
2024/01/27 06:15:50;;;;;;;6.43;1.67;;;13.20;99.90;;;;;;5050413;28;20108;-75
2024/01/27 06:18:16;;;;;;;6.67;1.10;;;13.20;99.90;;;;;;5050931;28;20386;-76
2024/01/27 06:20:42;;;;;;;3.70;1.50;;;13.20;99.90;;;;;;5050748;28;20032;-76
2024/01/27 06:23:08;;;;;;;5.23;1.17;;;13.20;99.90;;;;;;5050602;28;20036;-76
2024/01/27 06:25:34;;;;;;;3.50;1.23;;;13.20;99.90;;;;;;5051959;28;20033;-78
2024/01/27 06:28:00;;;;;;;4.77;1.50;;;13.20;99.90;;;;;;5051447;28;20036;-76
2024/01/27 06:30:25;;;;;;;3.13;1.80;;;13.20;99.90;;;;;;5050655;28;20037;-76
2024/01/27 06:32:51;;;;;;;3.03;1.33;;;13.20;99.90;;;;;;5050564;28;20095;-78
2024/01/27 06:35:17;;;;;;;3.83;1.00;;;13.10;99.90;;;;;;5050904;28;20033;-77
2024/01/27 06:37:42;;;;;;;3.87;1.30;;;13.20;99.90;;;;;;5049752;28;20048;-77
2024/01/27 06:40:09;;;;;;;2.70;1.20;;;13.10;99.90;;;;;;5049968;28;20029;-75
2024/01/27 06:42:35;;;;;;;6.28;1.85;;;13.10;99.90;;;;;;5051630;28;20030;-75
2024/01/27 06:45:01;;;;;;;2.80;1.07;;;13.10;99.90;;;;;;5050421;28;20092;-77
2024/01/27 06:47:27;;;;;;;2.30;1.10;;;13.10;99.90;;;;;;5050539;28;20025;-76
2024/01/27 06:49:52;;;;;;;3.23;1.20;;;13.10;99.90;;;;;;5051628;28;20111;-76
2024/01/27 06:52:18;;;;;;;3.27;1.17;;;13.10;99.90;;;;;;5049966;28;20039;-76
2024/01/27 06:54:44;;;;;;;5.27;1.40;;;13.10;99.90;;;;;;5037967;28;20037;-74
2024/01/27 06:57:23;;;;;;;4.87;1.10;;;13.10;99.90;;;;;;5037354;28;20034;-76
2024/01/27 06:59:55;;;;;;;3.60;1.42;;;13.00;99.90;;;;;;5040586;28;20533;-77
2024/01/27 07:02:28;;;;;;;3.58;1.23;;;13.10;99.90;;;;;;5039274;28;20051;-77
2024/01/27 07:04:55;;;;;;;5.85;1.38;;;13.10;99.90;;;;;;5040722;28;20032;-75
2024/01/27 07:07:27;;;;;;;5.03;1.30;;;13.00;99.90;;;;;;5050889;28;20031;-76
2024/01/27 07:09:55;;;;;;;4.90;1.42;;;13.00;99.90;;;;;;5051347;28;20540;-76
2024/01/27 07:12:21;;;;;;;3.72;1.20;;;13.00;99.90;;;;;;5051043;28;20589;-75
2024/01/27 07:14:46;;;;;;;5.70;1.73;;;13.00;99.90;;;;;;5050099;28;20037;-75
2024/01/27 07:17:13;;;;;;;3.80;1.37;;;13.00;99.90;;;;;;5049727;28;20040;-77
2024/01/27 07:19:39;;;;;;;3.33;1.73;;;13.00;99.90;;;;;;5050948;28;20029;-75
2024/01/27 07:22:04;;;;;;;3.77;1.53;;;12.90;99.90;;;;;;5050492;28;20569;-76
2024/01/27 07:24:30;;;;;;;5.73;1.47;;;13.00;99.90;;;;;;5050068;28;20071;-75
2024/01/27 07:26:58;;;;;;;4.70;1.60;;;13.00;99.90;;;;;;5050095;28;20107;-76
2024/01/27 07:29:23;;;;;;;5.00;1.50;;;13.00;99.90;;;;;;5050675;28;20095;-74
2024/01/27 07:31:50;;;;;;;3.23;1.27;;;13.00;99.90;;;;;;5049704;28;20397;-76
2024/01/27 07:34:16;;;;;;;4.57;1.30;;;13.00;99.90;;;;;;5048298;28;20032;-76
2024/01/27 07:36:42;;;;;;;5.73;1.57;;;13.00;99.90;;;;;;5050371;28;20037;-77
2024/01/27 07:39:08;;;;;;;5.67;1.70;;;13.00;99.90;;;;;;5049894;28;20029;-76
2024/01/27 07:41:34;;;;;;;3.70;1.73;;;13.00;99.90;;;;;;5051880;28;21541;-77
2024/01/27 07:44:10;;;;;;;6.27;1.70;;;13.00;99.90;;;;;;5053328;28;20128;-75
2024/01/27 07:46:40;;;;;;;3.38;1.33;;;13.00;99.90;;;;;;5053506;28;20040;-75
2024/01/27 07:49:07;;;;;;;4.35;1.63;;;13.00;99.90;;;;;;5054919;28;20160;-76
2024/01/27 07:51:33;;;;;;;2.97;1.50;;;13.10;99.90;;;;;;5053216;28;20033;-75
2024/01/27 07:54:00;;;;;;;4.53;1.40;;;13.00;99.90;;;;;;5047655;28;20033;-76
2024/01/27 07:56:26;;;;;;;2.58;1.20;;;13.10;99.90;;;;;;5046039;28;20052;-76
2024/01/27 07:58:52;;;;;;;3.80;1.50;;;13.10;99.90;;;;;;5038626;28;20041;-76
2024/01/27 08:01:18;;;;;;;6.78;1.88;;;13.20;99.90;;;;;;5050433;28;20501;-75
2024/01/27 08:03:44;;;;;;;6.50;1.60;;;13.40;99.90;;;;;;5052792;28;20033;-75
2024/01/27 08:06:18;;;;;;;10.90;2.20;;;13.40;99.90;;;;;;5039623;28;20026;-77
2024/01/27 08:08:46;;;;;;;13.02;2.50;;;13.50;99.90;;;;;;5040796;28;20033;-76
2024/01/27 08:11:12;;;;;;;18.27;2.25;;;13.70;99.90;;;;;;5038992;28;20040;-75
2024/01/27 08:13:38;;;;;;;12.45;1.80;;;13.80;99.90;;;;;;5042216;28;20029;-77
2024/01/27 08:16:05;;;;;;;9.97;1.80;;;14.00;99.90;;;;;;5046671;28;20040;-75
2024/01/27 08:18:31;;;;;;;14.35;2.63;;;14.30;99.90;;;;;;5045242;28;20026;-75
2024/01/27 08:20:57;;;;;;;22.50;10.02;;;14.60;99.90;;;;;;5049787;28;20025;-76
2024/01/27 08:23:23;;;;;;;65.67;34.37;;;14.80;99.90;;;;;;5045409;28;20040;-77
2024/01/27 08:25:52;;;;;;;36.42;17.15;;;14.90;99.90;;;;;;5039411;28;20116;-76
2024/01/27 08:28:18;;;;;;;43.00;17.77;;;14.80;99.90;;;;;;5066301;28;20434;-77
2024/01/27 08:30:44;;;;;;;29.00;15.83;;;14.90;99.90;;;;;;5040765;28;20037;-76
2024/01/27 08:33:10;;;;;;;73.37;43.90;;;15.10;99.90;;;;;;5042888;28;20028;-76
2024/01/27 08:35:35;;;;;;;43.70;28.70;;;15.30;99.90;;;;;;5048643;28;20496;-76
2024/01/27 08:38:03;;;;;;;39.30;18.77;;;15.50;99.90;;;;;;5034266;28;20045;-79
2024/01/27 08:40:29;;;;;;;33.45;19.73;;;15.80;99.90;;;;;;5048397;28;20041;-77
2024/01/27 08:42:55;;;;;;;28.30;16.30;;;16.10;99.90;;;;;;5051774;28;20033;-75
2024/01/27 08:45:20;;;;;;;27.30;16.10;;;16.20;99.90;;;;;;5056499;28;20033;-77
2024/01/27 08:47:46;;;;;;;26.23;13.73;;;16.20;99.90;;;;;;5052080;28;20091;-76
2024/01/27 08:50:12;;;;;;;25.97;15.60;;;16.10;99.90;;;;;;5045677;28;20036;-79
2024/01/27 08:52:37;;;;;;;22.97;12.93;;;15.90;99.90;;;;;;5048130;28;20051;-76
2024/01/27 08:55:03;;;;;;;20.90;12.87;;;16.00;99.90;;;;;;5053025;28;20126;-76
2024/01/27 08:57:29;;;;;;;25.30;13.27;;;16.20;99.90;;;;;;5039915;28;20566;-76
2024/01/27 08:59:55;;;;;;;24.90;14.60;;;16.60;99.90;;;;;;5044039;28;20095;-76
2024/01/27 09:02:21;;;;;;;24.67;11.43;;;16.30;99.90;;;;;;5045306;28;20059;-76
2024/01/27 09:04:46;;;;;;;24.13;12.10;;;15.90;99.90;;;;;;5053272;28;20104;-75
2024/01/27 09:07:12;;;;;;;19.30;11.60;;;15.80;99.90;;;;;;5047262;28;20095;-76
2024/01/27 09:09:40;;;;;;;23.93;11.87;;;16.00;99.90;;;;;;5041364;28;20058;-78
2024/01/27 09:12:06;;;;;;;29.42;12.52;;;16.00;99.90;;;;;;5036496;28;20021;-75
2024/01/27 09:14:33;;;;;;;19.75;14.23;;;15.80;99.90;;;;;;5068849;28;20024;-79
2024/01/27 09:17:02;;;;;;;;;;;15.80;99.90;;;;;;5034495;28;20100;-77
2024/01/27 09:19:28;;;;;;;21.60;12.57;;;16.00;99.90;;;;;;5048057;28;19909;-76
2024/01/27 09:21:54;;;;;;;24.10;12.77;;;16.50;99.90;;;;;;5048984;28;20061;-77
2024/01/27 09:24:19;;;;;;;21.63;11.30;;;17.40;99.90;;;;;;5049394;28;20071;-77
2024/01/27 09:26:45;;;;;;;20.00;10.63;;;17.60;99.90;;;;;;5041213;28;20676;-77
2024/01/27 09:29:11;;;;;;;17.70;10.70;;;17.70;99.90;;;;;;5038709;28;20566;-76
2024/01/27 09:31:36;;;;;;;18.93;11.57;;;17.80;99.90;;;;;;5046075;28;20084;-78
2024/01/27 09:34:02;;;;;;;63.37;41.90;;;17.40;99.90;;;;;;5039079;28;20075;-77
2024/01/27 09:36:28;;;;;;;31.53;22.53;;;17.80;99.90;;;;;;5051100;28;20079;-76
2024/01/27 09:38:54;;;;;;;34.67;23.53;;;18.10;99.90;;;;;;5053035;28;20269;-76
2024/01/27 09:41:20;;;;;;;31.23;21.30;;;18.60;99.90;;;;;;5042656;28;20044;-76
2024/01/27 09:43:50;;;;;;;27.83;18.10;;;19.20;99.90;;;;;;5040184;28;20037;-76
2024/01/27 09:46:17;;;;;;;27.08;18.33;;;19.50;99.90;;;;;;5047077;28;20501;-78
2024/01/27 09:48:43;;;;;;;23.90;16.35;;;19.80;99.90;;;;;;5038438;28;20025;-81
2024/01/27 09:51:10;;;;;;;;;;;19.80;99.90;;;;;;5057790;28;20032;-77
2024/01/27 09:53:36;;;;;;;24.17;16.33;;;19.80;99.90;;;;;;5056392;28;19912;-77
2024/01/27 09:56:03;;;;;;;21.30;14.73;;;19.90;99.90;;;;;;5056020;28;20025;-76
2024/01/27 09:58:30;;;;;;;19.95;14.35;;;20.00;99.70;;;;;;5050862;28;20128;-75
2024/01/27 10:00:58;;;;;;;23.25;14.77;;;20.00;99.80;;;;;;5037834;28;20038;-77
2024/01/27 10:03:26;;;;;;;19.38;13.45;;;20.10;99.60;;;;;;5034746;28;20040;-75
2024/01/27 10:05:56;;;;;;;21.35;13.88;;;20.60;99.20;;;;;;5055484;28;20020;-77
2024/01/27 10:08:24;;;;;;;23.80;13.95;;;20.70;98.80;;;;;;5047391;28;20474;-76
2024/01/27 10:10:55;;;;;;;21.08;14.32;;;19.70;99.70;;;;;;5044557;28;20028;-76
2024/01/27 10:13:26;;;;;;;20.00;14.05;;;19.50;99.90;;;;;;5034588;28;20029;-77
2024/01/27 10:16:08;;;;;;;24.88;13.25;;;20.00;99.80;;;;;;5044331;28;20025;-75
2024/01/27 10:18:34;;;;;;;16.63;12.85;;;20.00;99.80;;;;;;5043538;28;20037;-78
2024/01/27 10:21:00;;;;;;;20.88;12.82;;;20.00;99.80;;;;;;5043728;28;20483;-77
2024/01/27 10:23:26;;;;;;;20.40;13.05;;;20.00;99.90;;;;;;5045991;28;20033;-77
2024/01/27 10:25:53;;;;;;;19.98;13.07;;;20.60;99.50;;;;;;5047059;28;20115;-76
2024/01/27 10:28:19;;;;;;;16.27;11.50;;;20.70;99.10;;;;;;5034902;28;20033;-76
2024/01/27 10:30:45;;;;;;;20.58;11.43;;;20.60;99.50;;;;;;5050098;28;20052;-75
2024/01/27 10:33:14;;;;;;;14.18;10.75;;;20.70;99.30;;;;;;5048973;28;20041;-77
2024/01/27 10:35:43;;;;;;;17.40;10.77;;;20.20;99.90;;;;;;5048299;28;20035;-77
2024/01/27 10:38:09;;;;;;;18.50;10.70;;;19.70;99.90;;;;;;5042845;28;20056;-77
2024/01/27 10:40:37;;;;;;;17.73;10.40;;;20.10;99.90;;;;;;5046735;28;20382;-78
2024/01/27 10:43:08;;;;;;;20.48;10.93;;;21.20;99.60;;;;;;5040689;28;20032;-75
2024/01/27 10:45:36;;;;;;;15.82;9.40;;;21.60;98.70;;;;;;5041328;28;20067;-76
2024/01/27 10:48:04;;;;;;;20.40;9.93;;;20.70;99.60;;;;;;5042667;28;20087;-77
2024/01/27 10:50:30;;;;;;;14.02;9.82;;;19.70;99.90;;;;;;5045357;28;20521;-76
2024/01/27 10:52:58;;;;;;;15.40;9.50;;;19.20;99.90;;;;;;5042555;28;20398;-78
2024/01/27 10:55:25;;;;;;;27.63;10.07;;;18.90;99.90;;;;;;5035337;28;20451;-75
2024/01/27 10:57:54;;;;;;;17.75;10.02;;;19.30;99.90;;;;;;5031706;28;20029;-75
2024/01/27 11:00:20;;;;;;;24.00;9.93;;;20.20;99.90;;;;;;5065301;28;20062;-75
2024/01/27 11:02:52;;;;;;;28.52;9.68;;;20.90;99.90;;;;;;5035249;28;20032;-76
2024/01/27 11:05:18;;;;;;;19.77;8.88;;;21.70;99.30;;;;;;5050479;28;20033;-75
2024/01/27 11:07:43;;;;;;;18.83;8.37;;;22.10;98.60;;;;;;5051581;28;20055;-76
2024/01/27 11:10:09;;;;;;;19.85;9.05;;;22.00;98.70;;;;;;5049472;28;20021;-76
2024/01/27 11:12:35;;;;;;;20.47;8.90;;;21.60;98.90;;;;;;5046435;28;20061;-75
2024/01/27 11:15:02;;;;;;;16.00;8.63;;;21.00;99.60;;;;;;5050613;28;20017;-75
2024/01/27 11:17:28;;;;;;;;;;;20.60;99.90;;;;;;5052003;28;20033;-75
2024/01/27 11:19:59;;;;;;;17.05;8.52;;;20.60;99.90;;;;;;5047359;28;19909;-76
2024/01/27 11:22:26;;;;;;;20.98;7.88;;;20.90;99.90;;;;;;5050264;28;20116;-75
2024/01/27 11:25:13;;;;;;;17.85;8.00;;;21.20;99.40;;;;;;5050029;28;20029;-77
2024/01/27 11:27:41;;;;;;;12.90;7.55;;;21.50;99.10;;;;;;5045979;28;20093;-75
2024/01/27 11:30:31;;;;;;;20.70;8.30;;;21.50;99.00;;;;;;5048327;28;20496;-77
2024/01/27 11:32:57;;;;;;;17.70;7.32;;;21.10;99.30;;;;;;5047103;28;20816;-74
2024/01/27 11:35:26;;;;;;;12.75;6.80;;;20.90;99.70;;;;;;5051481;28;20036;-74
2024/01/27 11:37:52;;;;;;;11.55;7.25;;;20.70;99.90;;;;;;5038972;28;20049;-75
2024/01/27 11:40:18;;;;;;;17.08;7.07;;;20.70;99.90;;;;;;5032976;28;20426;-76
2024/01/27 11:42:54;;;;;;;14.43;7.90;;;20.70;99.90;;;;;;5044844;28;20037;-77
2024/01/27 11:45:20;;;;;;;17.48;7.22;;;20.70;99.90;;;;;;5043446;28;20040;-78
2024/01/27 11:47:46;;;;;;;17.87;6.90;;;20.50;99.90;;;;;;5037385;28;20026;-76
2024/01/27 11:50:11;;;;;;;17.30;7.22;;;20.30;99.90;;;;;;5040293;28;20037;-76
2024/01/27 11:52:37;;;;;;;18.73;7.13;;;20.20;99.90;;;;;;5040999;28;20503;-78
2024/01/27 11:55:04;;;;;;;16.50;7.67;;;20.10;99.90;;;;;;5041422;28;20036;-78
2024/01/27 11:57:30;;;;;;;14.23;6.70;;;20.10;99.90;;;;;;5046468;28;20048;-76
2024/01/27 11:59:56;;;;;;;19.23;6.37;;;20.00;99.90;;;;;;5037800;28;20055;-76
2024/01/27 12:02:21;;;;;;;11.88;5.80;;;20.10;99.90;;;;;;5047960;28;20104;-75
2024/01/27 12:04:49;;;;;;;17.80;6.73;;;20.00;99.90;;;;;;5049575;28;20132;-77
2024/01/27 12:07:18;;;;;;;15.38;6.32;;;20.00;99.90;;;;;;5055323;28;20040;-76
2024/01/27 12:09:44;;;;;;;14.50;6.72;;;19.90;99.90;;;;;;5053269;28;20058;-76
2024/01/27 12:12:12;;;;;;;13.63;6.53;;;19.90;99.90;;;;;;5045236;28;20029;-76
2024/01/27 12:14:45;;;;;;;18.13;6.25;;;19.80;99.90;;;;;;5044047;28;20036;-75
2024/01/27 12:17:11;;;;;;;20.45;6.55;;;19.90;99.90;;;;;;5041392;28;20067;-76
2024/01/27 12:19:37;;;;;;;16.45;5.65;;;19.80;99.90;;;;;;5038657;28;20026;-74
2024/01/27 12:22:04;;;;;;;14.75;5.63;;;19.70;99.90;;;;;;5051018;28;20739;-75
2024/01/27 12:24:32;;;;;;;18.13;5.65;;;19.70;99.90;;;;;;5048517;28;20167;-75
2024/01/27 12:26:59;;;;;;;22.25;6.10;;;19.60;99.90;;;;;;5041440;28;20032;-75
2024/01/27 12:29:24;;;;;;;;;;;19.60;99.90;;;;;;5048659;28;20389;-75
2024/01/27 12:31:50;;;;;;;11.25;5.40;;;19.60;99.90;;;;;;5041830;28;19917;-75
2024/01/27 12:34:17;;;;;;;15.70;5.47;;;19.60;99.90;;;;;;5038022;28;20087;-78
2024/01/27 12:36:43;;;;;;;15.60;5.68;;;19.60;99.90;;;;;;5035750;28;20057;-75
2024/01/27 12:39:10;;;;;;;18.67;5.93;;;19.50;99.90;;;;;;5038654;28;20026;-77